Time;durP1;ratioP1;P1;durP2;ratioP2;P2;SDS_P1;SDS_P2;PMS_P1;PMS_P2;Temp;Humidity;BMP_temperature;BMP_pressure;BME280_temperature;BME280_humidity;BME280_pressure;Samples;Min_cycle;Max_cycle;Signal;HPM_P1;HPM_P2
2023/12/16 00:01:54;;;;;;;9.03;5.37;;;11.30;99.90;;;;;;5089845;28;20489;-66
2023/12/16 00:04:20;;;;;;;11.13;6.17;;;11.30;99.90;;;;;;5090386;28;20299;-65
2023/12/16 00:06:45;;;;;;;11.90;5.67;;;11.20;99.90;;;;;;5092001;28;20172;-65
2023/12/16 00:09:11;;;;;;;9.97;6.10;;;11.20;99.90;;;;;;5080526;28;20627;-65
2023/12/16 00:11:37;;;;;;;10.03;6.53;;;11.30;99.90;;;;;;5072676;28;20200;-65
2023/12/16 00:14:02;;;;;;;9.77;6.40;;;11.20;99.90;;;;;;5079860;28;20220;-65
2023/12/16 00:16:28;;;;;;;11.97;6.43;;;11.30;99.90;;;;;;5093706;28;20693;-65
2023/12/16 00:18:54;;;;;;;10.20;7.10;;;11.30;99.90;;;;;;5083003;28;20416;-66
2023/12/16 00:21:20;;;;;;;10.53;5.80;;;11.30;99.90;;;;;;5091069;28;20657;-65
2023/12/16 00:23:45;;;;;;;8.40;5.77;;;11.20;99.90;;;;;;5092024;28;20208;-65
2023/12/16 00:26:11;;;;;;;10.73;6.80;;;11.20;99.90;;;;;;5089595;28;20246;-65
2023/12/16 00:28:37;;;;;;;7.57;6.00;;;11.20;99.90;;;;;;5091786;28;20249;-66
2023/12/16 00:31:03;;;;;;;9.23;6.03;;;11.20;99.90;;;;;;5091275;28;20174;-65
2023/12/16 00:33:28;;;;;;;11.80;5.83;;;11.20;99.90;;;;;;5092164;28;20169;-65
2023/12/16 00:35:54;;;;;;;10.70;5.57;;;11.20;99.90;;;;;;5092045;28;20408;-66
2023/12/16 00:38:20;;;;;;;9.90;6.30;;;11.20;99.90;;;;;;5083798;28;20742;-66
2023/12/16 00:40:45;;;;;;;12.20;6.37;;;11.20;99.90;;;;;;5072101;28;20165;-65
2023/12/16 00:43:11;;;;;;;7.73;6.20;;;11.10;99.90;;;;;;5080974;28;20270;-65
2023/12/16 00:45:37;;;;;;;8.67;6.73;;;11.10;99.90;;;;;;5093931;28;20186;-65
2023/12/16 00:48:03;;;;;;;10.33;6.13;;;11.10;99.90;;;;;;5095617;28;20194;-63
2023/12/16 00:50:28;;;;;;;10.20;6.60;;;11.10;99.90;;;;;;5104412;28;20186;-66
2023/12/16 00:52:54;;;;;;;13.43;7.27;;;11.10;99.90;;;;;;5092133;28;20171;-66
2023/12/16 00:55:20;;;;;;;8.10;6.80;;;11.10;99.90;;;;;;5090735;28;20204;-65
2023/12/16 00:57:45;;;;;;;9.23;7.53;;;11.10;99.90;;;;;;5091452;28;20571;-65
2023/12/16 01:00:11;;;;;;;13.07;6.83;;;11.10;99.90;;;;;;5091002;28;20172;-65
2023/12/16 01:02:37;;;;;;;7.63;6.67;;;11.20;99.90;;;;;;5090137;28;20180;-65
2023/12/16 01:05:03;;;;;;;11.23;8.50;;;11.20;99.90;;;;;;5089798;28;20429;-63
2023/12/16 01:07:29;;;;;;;14.20;8.07;;;11.20;99.90;;;;;;5091786;28;20175;-66
2023/12/16 01:09:55;;;;;;;10.17;7.73;;;11.20;99.90;;;;;;5089207;28;20418;-65
2023/12/16 01:12:20;;;;;;;10.33;6.73;;;11.30;99.90;;;;;;5071730;28;20914;-66
2023/12/16 01:14:46;;;;;;;11.93;7.63;;;11.30;99.90;;;;;;5083764;28;20592;-65
2023/12/16 01:17:12;;;;;;;14.13;7.87;;;11.20;99.90;;;;;;5098976;28;20246;-65
2023/12/16 01:19:38;;;;;;;10.70;7.20;;;11.20;99.90;;;;;;5116017;28;20175;-66
2023/12/16 01:22:03;;;;;;;11.00;6.70;;;11.30;99.90;;;;;;5115026;28;20251;-62
2023/12/16 01:24:32;;;;;;;14.97;7.37;;;11.30;99.90;;;;;;5115249;28;20208;-65
2023/12/16 01:26:57;;;;;;;10.87;7.50;;;11.30;99.90;;;;;;5115504;28;20199;-66
2023/12/16 01:29:23;;;;;;;13.70;7.50;;;11.20;99.90;;;;;;5099939;28;20500;-65
2023/12/16 01:31:49;;;;;;;10.20;6.80;;;11.30;99.90;;;;;;5095050;28;20653;-65
2023/12/16 01:34:15;;;;;;;9.47;7.63;;;11.30;99.90;;;;;;5093683;28;20200;-65
2023/12/16 01:36:40;;;;;;;7.87;7.00;;;11.30;99.90;;;;;;5087109;28;20614;-65
2023/12/16 01:39:06;;;;;;;11.87;7.57;;;11.30;99.90;;;;;;5073529;28;20342;-63
2023/12/16 01:41:32;;;;;;;9.83;7.37;;;11.30;99.90;;;;;;5074823;28;20622;-65
2023/12/16 01:43:57;;;;;;;10.50;7.10;;;11.30;99.90;;;;;;5092734;28;20265;-65
2023/12/16 01:46:23;;;;;;;12.03;7.67;;;11.30;99.90;;;;;;5079230;28;20188;-65
2023/12/16 01:48:49;;;;;;;12.30;7.90;;;11.30;99.90;;;;;;5074370;28;20177;-65
2023/12/16 01:51:17;;;;;;;9.13;8.00;;;11.30;99.90;;;;;;5073540;28;20417;-66
2023/12/16 01:53:43;;;;;;;13.07;6.90;;;11.20;99.90;;;;;;5098542;28;20179;-66
2023/12/16 01:56:09;;;;;;;10.37;7.90;;;11.20;99.90;;;;;;5093658;28;20402;-65
2023/12/16 01:58:37;;;;;;;10.63;7.33;;;11.20;99.90;;;;;;5093970;28;20764;-66
2023/12/16 02:01:03;;;;;;;8.03;6.80;;;11.20;99.90;;;;;;5094220;28;20742;-65
2023/12/16 02:03:30;;;;;;;12.80;7.33;;;11.20;99.90;;;;;;5093900;28;20443;-65
2023/12/16 02:05:57;;;;;;;9.70;7.70;;;11.30;99.90;;;;;;5094283;28;20411;-66
2023/12/16 02:08:23;;;;;;;13.07;8.10;;;11.20;99.90;;;;;;5090580;28;20493;-65
2023/12/16 02:10:49;;;;;;;17.70;6.90;;;11.20;99.90;;;;;;5076567;28;20596;-65
2023/12/16 02:13:14;;;;;;;9.83;7.20;;;11.20;99.90;;;;;;5086447;28;20180;-65
2023/12/16 02:15:40;;;;;;;13.83;7.70;;;11.20;99.90;;;;;;5088927;28;21003;-65
2023/12/16 02:18:06;;;;;;;11.77;7.27;;;11.20;99.90;;;;;;5100616;28;20367;-63
2023/12/16 02:20:32;;;;;;;9.60;6.53;;;11.10;99.90;;;;;;5107775;28;20187;-65
2023/12/16 02:23:00;;;;;;;13.80;7.20;;;11.20;99.90;;;;;;5096658;28;20182;-66
2023/12/16 02:25:26;;;;;;;11.27;7.07;;;11.20;99.90;;;;;;5092045;28;20166;-65
2023/12/16 02:27:52;;;;;;;11.73;7.00;;;11.20;99.90;;;;;;5093153;28;20415;-66
2023/12/16 02:30:20;;;;;;;9.50;7.10;;;11.10;99.90;;;;;;5078091;28;20170;-65
2023/12/16 02:32:46;;;;;;;9.07;6.30;;;11.20;99.90;;;;;;5074921;28;20169;-65
2023/12/16 02:35:12;;;;;;;8.07;6.27;;;11.20;99.90;;;;;;5092672;28;20489;-65
2023/12/16 02:37:38;;;;;;;10.70;6.27;;;11.20;99.90;;;;;;5083960;28;21005;-65
2023/12/16 02:40:04;;;;;;;10.43;6.80;;;11.20;99.90;;;;;;5074573;28;20181;-66
2023/12/16 02:42:30;;;;;;;11.13;6.43;;;11.30;99.90;;;;;;5103761;28;20180;-66
2023/12/16 02:44:56;;;;;;;10.77;6.67;;;11.20;99.90;;;;;;5094917;28;21044;-65
2023/12/16 02:47:22;;;;;;;10.63;6.90;;;11.20;99.90;;;;;;5087981;28;20507;-65
2023/12/16 02:49:47;;;;;;;10.70;6.90;;;11.20;99.90;;;;;;5076164;28;20202;-65
2023/12/16 02:52:13;;;;;;;9.20;7.13;;;11.20;99.90;;;;;;5077591;28;20218;-65
2023/12/16 02:54:39;;;;;;;13.00;6.50;;;11.30;99.90;;;;;;5074341;28;20194;-65
2023/12/16 02:57:05;;;;;;;14.00;7.20;;;11.30;99.90;;;;;;5093339;28;20630;-65
2023/12/16 02:59:31;;;;;;;9.27;6.73;;;11.30;99.90;;;;;;5078534;28;20890;-65
2023/12/16 03:01:56;;;;;;;10.00;5.70;;;11.30;99.90;;;;;;5073219;28;20470;-65
2023/12/16 03:04:22;;;;;;;8.37;6.40;;;11.20;99.90;;;;;;5072192;28;20254;-65
2023/12/16 03:06:48;;;;;;;10.73;6.43;;;11.20;99.90;;;;;;5073175;28;20732;-66
2023/12/16 03:09:13;;;;;;;7.13;5.63;;;11.20;99.90;;;;;;5076256;28;20185;-65
2023/12/16 03:11:39;;;;;;;7.77;5.50;;;11.10;99.90;;;;;;5112825;27;20187;-66
2023/12/16 03:14:05;;;;;;;10.90;6.50;;;11.10;99.90;;;;;;5101316;28;20220;-65
2023/12/16 03:16:34;;;;;;;14.17;6.40;;;11.10;99.90;;;;;;5125125;27;20732;-66
2023/12/16 03:19:00;;;;;;;7.67;5.33;;;11.10;99.90;;;;;;5078388;28;20634;-66
2023/12/16 03:21:26;;;;;;;9.70;5.90;;;11.10;99.90;;;;;;5072023;28;20426;-65
2023/12/16 03:23:52;;;;;;;10.30;5.73;;;11.00;99.90;;;;;;5072609;28;20201;-66
2023/12/16 03:26:18;;;;;;;7.60;6.07;;;11.00;99.90;;;;;;5071678;28;20925;-65
2023/12/16 03:28:43;;;;;;;8.20;6.00;;;10.90;99.90;;;;;;5072504;28;20170;-65
2023/12/16 03:31:09;;;;;;;7.90;6.10;;;11.00;99.90;;;;;;5072370;28;20414;-62
2023/12/16 03:33:35;;;;;;;7.73;6.00;;;10.90;99.90;;;;;;5091841;27;20200;-65
2023/12/16 03:36:00;;;;;;;7.27;5.50;;;11.00;99.90;;;;;;5087773;28;20172;-66
2023/12/16 03:38:28;;;;;;;8.20;5.30;;;10.90;99.90;;;;;;5104831;27;20184;-65
2023/12/16 03:40:54;;;;;;;9.57;5.90;;;10.90;99.90;;;;;;5080666;28;20177;-65
2023/12/16 03:43:19;;;;;;;7.67;5.40;;;10.90;99.90;;;;;;5080099;28;20465;-65
2023/12/16 03:45:45;;;;;;;7.37;5.57;;;11.00;99.90;;;;;;5092566;28;20416;-66
2023/12/16 03:48:11;;;;;;;11.77;5.10;;;10.90;99.90;;;;;;5082350;28;20169;-62
2023/12/16 03:50:37;;;;;;;11.00;5.37;;;11.00;99.90;;;;;;5071930;28;20445;-66
2023/12/16 03:53:03;;;;;;;6.67;5.57;;;11.00;99.90;;;;;;5091285;28;20215;-66
2023/12/16 03:55:28;;;;;;;8.17;4.60;;;11.00;99.90;;;;;;5082833;28;20687;-65
2023/12/16 03:57:54;;;;;;;9.67;5.97;;;11.10;99.90;;;;;;5072234;28;20639;-66
2023/12/16 04:00:20;;;;;;;8.13;5.70;;;11.10;99.90;;;;;;5090986;28;20176;-65
2023/12/16 04:02:45;;;;;;;11.73;6.60;;;11.10;99.90;;;;;;5086140;28;20552;-65
2023/12/16 04:05:12;;;;;;;8.47;5.70;;;11.10;99.90;;;;;;5082927;28;20174;-63
2023/12/16 04:07:38;;;;;;;11.43;5.53;;;11.10;99.90;;;;;;5088472;28;20629;-66
2023/12/16 04:10:04;;;;;;;7.73;4.97;;;11.10;99.90;;;;;;5086600;28;20418;-65
2023/12/16 04:12:30;;;;;;;7.90;5.63;;;11.10;99.90;;;;;;5080173;28;20177;-65
2023/12/16 04:14:56;;;;;;;11.50;5.37;;;11.10;99.90;;;;;;5091883;28;20964;-65
2023/12/16 04:17:22;;;;;;;7.03;5.40;;;11.00;99.90;;;;;;5088188;28;20191;-65
2023/12/16 04:19:51;;;;;;;6.97;5.50;;;11.00;99.90;;;;;;5092198;28;20191;-65
2023/12/16 04:22:17;;;;;;;7.27;5.50;;;10.90;99.90;;;;;;5089257;28;20172;-65
2023/12/16 04:24:44;;;;;;;8.80;4.83;;;10.80;99.90;;;;;;5084087;28;20451;-66
2023/12/16 04:27:09;;;;;;;8.33;4.63;;;10.80;99.90;;;;;;5071995;28;20495;-65
2023/12/16 04:29:35;;;;;;;5.53;4.27;;;10.80;99.90;;;;;;5074458;28;20944;-65
2023/12/16 04:32:01;;;;;;;11.40;5.10;;;10.80;99.90;;;;;;5077664;28;20184;-66
2023/12/16 04:34:26;;;;;;;10.27;4.60;;;10.70;99.90;;;;;;5083158;28;20193;-65
2023/12/16 04:36:52;;;;;;;7.20;4.70;;;10.80;99.90;;;;;;5071881;28;20208;-65
2023/12/16 04:39:19;;;;;;;11.47;5.00;;;10.80;99.90;;;;;;5071305;28;20180;-65
2023/12/16 04:41:44;;;;;;;7.90;4.40;;;10.90;99.90;;;;;;5072114;28;20921;-65
2023/12/16 04:44:10;;;;;;;8.83;4.83;;;10.80;99.90;;;;;;5070450;28;20471;-66
2023/12/16 04:46:36;;;;;;;6.87;4.80;;;10.80;99.90;;;;;;5091142;28;20278;-65
2023/12/16 04:49:02;;;;;;;7.20;4.87;;;10.80;99.90;;;;;;5113799;27;20791;-66
2023/12/16 04:51:28;;;;;;;6.83;5.07;;;10.70;99.90;;;;;;5078291;28;20183;-65
2023/12/16 04:53:56;;;;;;;8.50;4.73;;;10.70;99.90;;;;;;5095815;28;20414;-66
2023/12/16 04:56:21;;;;;;;13.30;5.20;;;10.80;99.90;;;;;;5082554;28;20426;-65
2023/12/16 04:58:47;;;;;;;5.57;4.33;;;10.80;99.90;;;;;;5075814;28;20464;-65
2023/12/16 05:01:13;;;;;;;6.63;4.17;;;10.80;99.90;;;;;;5075267;28;20403;-65
2023/12/16 05:03:41;;;;;;;9.93;4.43;;;10.90;99.90;;;;;;5100324;28;20539;-66
2023/12/16 05:06:07;;;;;;;5.67;5.17;;;10.90;99.90;;;;;;5104677;28;20181;-65
2023/12/16 05:08:33;;;;;;;5.60;4.40;;;11.00;99.90;;;;;;5084335;28;20425;-65
2023/12/16 05:10:58;;;;;;;8.10;5.00;;;11.00;99.90;;;;;;5077264;28;20426;-66
2023/12/16 05:13:24;;;;;;;7.93;4.87;;;11.00;99.90;;;;;;5073383;28;20178;-65
2023/12/16 05:15:51;;;;;;;7.77;5.40;;;11.10;99.90;;;;;;5075393;28;20232;-65
2023/12/16 05:18:18;;;;;;;10.80;4.87;;;11.10;99.90;;;;;;5078156;28;20194;-63
2023/12/16 05:20:43;;;;;;;8.47;4.93;;;11.10;99.90;;;;;;5079347;28;20422;-65
2023/12/16 05:23:09;;;;;;;5.60;5.10;;;11.10;99.70;;;;;;5095122;28;20442;-66
2023/12/16 05:25:35;;;;;;;6.13;5.03;;;11.10;99.90;;;;;;5077247;28;20200;-65
2023/12/16 05:28:02;;;;;;;9.70;4.50;;;11.10;99.90;;;;;;5090723;28;20545;-66
2023/12/16 05:30:27;;;;;;;8.47;5.23;;;11.20;99.80;;;;;;5074263;28;20446;-66
2023/12/16 05:32:53;;;;;;;8.83;5.87;;;11.20;99.20;;;;;;5089102;28;20810;-65
2023/12/16 05:35:19;;;;;;;5.80;4.87;;;11.20;99.00;;;;;;5108028;28;20508;-65
2023/12/16 05:37:46;;;;;;;6.80;5.00;;;11.20;99.70;;;;;;5078763;28;20422;-65
2023/12/16 05:40:12;;;;;;;5.77;4.60;;;11.10;99.70;;;;;;5101798;28;20516;-65
2023/12/16 05:42:39;;;;;;;8.30;4.90;;;11.10;99.40;;;;;;5091226;28;20423;-65
2023/12/16 05:45:06;;;;;;;7.27;5.83;;;11.10;99.10;;;;;;5079204;28;20891;-65
2023/12/16 05:47:31;;;;;;;7.07;5.00;;;11.20;99.90;;;;;;5086744;28;20447;-65
2023/12/16 05:49:57;;;;;;;6.53;5.37;;;11.20;99.90;;;;;;5074635;28;20508;-66
2023/12/16 05:52:23;;;;;;;5.57;4.67;;;11.20;99.80;;;;;;5083860;28;20562;-65
2023/12/16 05:54:48;;;;;;;6.10;5.40;;;11.20;99.80;;;;;;5086340;28;20249;-66
2023/12/16 05:57:14;;;;;;;7.03;5.20;;;11.20;99.90;;;;;;5074635;28;20205;-65
2023/12/16 05:59:40;;;;;;;5.50;4.77;;;11.30;99.90;;;;;;5093507;28;20184;-65
2023/12/16 06:02:05;;;;;;;6.50;4.93;;;11.20;99.40;;;;;;5092653;28;20180;-65
2023/12/16 06:04:31;;;;;;;7.20;4.77;;;11.30;99.30;;;;;;5106771;28;20256;-65
2023/12/16 06:06:57;;;;;;;8.63;6.03;;;11.30;99.90;;;;;;5074188;28;20183;-66
2023/12/16 06:09:23;;;;;;;6.13;5.53;;;11.30;99.60;;;;;;5074381;28;20174;-65
2023/12/16 06:11:48;;;;;;;7.73;5.10;;;11.20;99.00;;;;;;5077358;28;20211;-65
2023/12/16 06:14:14;;;;;;;8.10;5.87;;;11.20;99.00;;;;;;5072953;28;20222;-66
2023/12/16 06:16:40;;;;;;;6.33;5.73;;;11.30;99.50;;;;;;5091479;28;20525;-65
2023/12/16 06:19:05;;;;;;;7.00;6.30;;;11.30;99.00;;;;;;5078103;28;20175;-65
2023/12/16 06:21:31;;;;;;;6.87;5.43;;;11.30;99.30;;;;;;5077899;28;20179;-65
2023/12/16 06:24:00;;;;;;;7.40;6.70;;;11.30;99.40;;;;;;5093159;28;20251;-66
2023/12/16 06:26:26;;;;;;;7.40;5.50;;;11.30;99.50;;;;;;5078509;28;20174;-65
2023/12/16 06:28:52;;;;;;;7.23;5.37;;;11.20;99.20;;;;;;5075729;28;20420;-65
2023/12/16 06:31:19;;;;;;;7.93;5.73;;;11.10;99.10;;;;;;5075066;28;20807;-65
2023/12/16 06:33:45;;;;;;;11.90;5.10;;;11.20;99.30;;;;;;5085904;28;20542;-65
2023/12/16 06:36:11;;;;;;;5.43;4.90;;;11.20;99.40;;;;;;5075410;28;20420;-66
2023/12/16 06:38:37;;;;;;;13.50;5.83;;;11.20;99.20;;;;;;5073492;28;20410;-65
2023/12/16 06:41:03;;;;;;;8.77;5.20;;;11.20;99.20;;;;;;5077253;28;20421;-65
2023/12/16 06:43:29;;;;;;;9.40;5.13;;;11.20;99.40;;;;;;5085864;28;20497;-65
2023/12/16 06:45:55;;;;;;;9.10;4.97;;;11.20;99.30;;;;;;5073582;28;20506;-66
2023/12/16 06:48:21;;;;;;;6.13;5.57;;;11.20;99.10;;;;;;5086387;28;20416;-64
2023/12/16 06:50:49;;;;;;;7.00;5.10;;;11.30;99.90;;;;;;5093564;28;20417;-65
2023/12/16 06:53:15;;;;;;;7.37;5.40;;;11.30;99.90;;;;;;5093168;28;20434;-65
2023/12/16 06:55:41;;;;;;;5.77;4.90;;;11.30;99.90;;;;;;5079737;28;20482;-65
2023/12/16 06:58:07;;;;;;;8.00;5.30;;;11.30;99.90;;;;;;5078444;28;20423;-65
2023/12/16 07:00:32;;;;;;;6.57;5.33;;;11.20;99.60;;;;;;5077284;28;20226;-63
2023/12/16 07:02:59;;;;;;;5.07;4.47;;;11.20;99.80;;;;;;5098945;28;20191;-65
2023/12/16 07:05:25;;;;;;;9.10;5.60;;;11.20;99.80;;;;;;5093239;28;20191;-65
2023/12/16 07:07:51;;;;;;;9.23;5.07;;;11.20;99.20;;;;;;5073348;28;20404;-65
2023/12/16 07:10:16;;;;;;;7.03;4.93;;;11.20;99.40;;;;;;5072801;28;20183;-65
2023/12/16 07:12:42;;;;;;;8.20;5.10;;;11.20;99.60;;;;;;5071658;28;20425;-65
2023/12/16 07:15:08;;;;;;;7.87;5.60;;;11.20;99.90;;;;;;5110783;27;20278;-65
2023/12/16 07:17:34;;;;;;;5.90;4.77;;;11.20;99.90;;;;;;5079935;28;20176;-65
2023/12/16 07:20:00;;;;;;;7.20;5.30;;;11.20;99.80;;;;;;5093258;28;20402;-66
2023/12/16 07:22:29;;;;;;;7.37;5.87;;;11.20;99.80;;;;;;5073986;28;20177;-65
2023/12/16 07:24:55;;;;;;;7.40;5.03;;;11.20;99.90;;;;;;5089790;28;20208;-66
2023/12/16 07:27:22;;;;;;;7.27;5.30;;;11.20;99.60;;;;;;5085721;28;20423;-65
2023/12/16 07:29:49;;;;;;;7.47;5.10;;;11.10;99.50;;;;;;5077788;28;20458;-66
2023/12/16 07:32:14;;;;;;;7.67;5.73;;;11.20;99.80;;;;;;5089319;28;20520;-64
2023/12/16 07:34:40;;;;;;;5.93;5.27;;;11.10;99.90;;;;;;5106948;28;20510;-64
2023/12/16 07:37:06;;;;;;;10.10;5.30;;;11.10;99.90;;;;;;5094269;28;20632;-64
2023/12/16 07:39:32;;;;;;;5.47;4.67;;;11.10;99.90;;;;;;5094405;28;20232;-63
2023/12/16 07:41:58;;;;;;;5.53;4.50;;;11.10;99.90;;;;;;5096065;28;20419;-64
2023/12/16 07:44:24;;;;;;;8.50;5.00;;;11.10;99.90;;;;;;5072230;28;20202;-63
2023/12/16 07:46:50;;;;;;;7.53;5.13;;;11.10;99.90;;;;;;5089310;28;20210;-64
2023/12/16 07:49:17;;;;;;;11.23;5.63;;;11.00;99.90;;;;;;5090676;28;20928;-64
2023/12/16 07:51:43;;;;;;;6.07;4.80;;;11.00;99.90;;;;;;5091627;28;20172;-64
2023/12/16 07:54:11;;;;;;;7.43;4.27;;;11.10;99.90;;;;;;5090380;28;20932;-63
2023/12/16 07:56:36;;;;;;;5.93;4.50;;;11.10;99.90;;;;;;5109961;28;20188;-64
2023/12/16 07:59:02;;;;;;;11.27;6.20;;;11.10;99.90;;;;;;5092044;28;20868;-64
2023/12/16 08:01:28;;;;;;;13.73;5.00;;;11.10;99.90;;;;;;5088166;28;20558;-63
2023/12/16 08:03:54;;;;;;;5.93;4.90;;;11.10;99.90;;;;;;5072318;28;20244;-64
2023/12/16 08:06:20;;;;;;;6.97;5.10;;;11.10;99.90;;;;;;5072109;28;20182;-64
2023/12/16 08:08:46;;;;;;;10.20;4.80;;;11.20;99.90;;;;;;5071601;28;20509;-64
2023/12/16 08:11:12;;;;;;;5.70;4.10;;;11.10;99.90;;;;;;5084861;28;20943;-63
2023/12/16 08:13:38;;;;;;;8.53;5.00;;;11.20;99.90;;;;;;5078119;28;20256;-64
2023/12/16 08:16:04;;;;;;;8.10;5.20;;;11.20;99.90;;;;;;5079499;28;20610;-63
2023/12/16 08:18:31;;;;;;;8.77;4.57;;;11.30;99.90;;;;;;5089543;28;20250;-64
2023/12/16 08:20:57;;;;;;;8.00;4.90;;;11.30;99.90;;;;;;5084330;28;20422;-64
2023/12/16 08:23:23;;;;;;;12.17;5.13;;;11.30;99.90;;;;;;5078322;28;20994;-66
2023/12/16 08:25:49;;;;;;;8.93;5.00;;;11.30;99.90;;;;;;5093588;28;20579;-67
2023/12/16 08:28:16;;;;;;;6.20;4.53;;;11.30;99.90;;;;;;5094118;28;20443;-64
2023/12/16 08:30:43;;;;;;;7.33;4.90;;;11.30;99.90;;;;;;5094234;28;20428;-64
2023/12/16 08:33:09;;;;;;;6.87;4.30;;;11.30;99.90;;;;;;5097498;28;20498;-64
2023/12/16 08:35:36;;;;;;;8.27;4.90;;;11.30;99.90;;;;;;5095583;28;20835;-63
2023/12/16 08:38:02;;;;;;;6.40;4.33;;;11.30;99.90;;;;;;5089621;28;20176;-63
2023/12/16 08:40:28;;;;;;;7.10;4.23;;;11.30;99.90;;;;;;5088504;28;20426;-61
2023/12/16 08:42:54;;;;;;;6.10;4.07;;;11.40;99.90;;;;;;5088082;28;20420;-64
2023/12/16 08:45:20;;;;;;;12.43;4.57;;;11.40;99.90;;;;;;5093408;28;20470;-63
2023/12/16 08:47:46;;;;;;;9.30;4.17;;;11.40;99.90;;;;;;5097588;28;20532;-64
2023/12/16 08:50:11;;;;;;;12.00;4.30;;;11.40;99.90;;;;;;5099102;28;20177;-64
2023/12/16 08:52:38;;;;;;;6.87;4.40;;;11.40;99.90;;;;;;5092179;28;20180;-64
2023/12/16 08:55:04;;;;;;;7.10;4.20;;;11.30;99.90;;;;;;5108965;28;20465;-64
2023/12/16 08:57:30;;;;;;;12.60;5.73;;;11.40;99.90;;;;;;5093542;28;20431;-61
2023/12/16 08:59:56;;;;;;;7.97;4.57;;;11.40;99.90;;;;;;5093941;28;20469;-62
2023/12/16 09:02:22;;;;;;;6.73;4.70;;;11.90;99.90;;;;;;5096619;28;20981;-63
2023/12/16 09:04:48;;;;;;;5.00;3.77;;;12.70;99.20;;;;;;5094754;28;20215;-64
2023/12/16 09:07:14;;;;;;;7.27;4.50;;;13.40;96.20;;;;;;5095157;28;20802;-63
2023/12/16 09:09:40;;;;;;;9.90;4.60;;;14.00;94.70;;;;;;5102032;28;20432;-62
2023/12/16 09:12:06;;;;;;;7.17;4.40;;;14.70;94.00;;;;;;5099654;28;20478;-62
2023/12/16 09:14:32;;;;;;;5.00;4.50;;;15.60;97.30;;;;;;5114358;28;20556;-62
2023/12/16 09:16:58;;;;;;;5.73;4.43;;;15.90;94.60;;;;;;5093346;28;20514;-62
2023/12/16 09:19:25;;;;;;;4.53;4.13;;;16.20;93.00;;;;;;5088388;28;20432;-62
2023/12/16 09:21:50;;;;;;;8.87;3.93;;;16.40;94.30;;;;;;5113420;28;20493;-62
2023/12/16 09:24:17;;;;;;;6.13;3.90;;;16.50;94.20;;;;;;5097650;28;20566;-62
2023/12/16 09:26:44;;;;;;;4.70;4.30;;;16.40;92.40;;;;;;5093731;28;20229;-62
2023/12/16 09:29:11;;;;;;;4.30;3.90;;;16.40;91.70;;;;;;5102394;28;20418;-62
2023/12/16 09:31:37;;;;;;;5.27;4.77;;;16.30;92.10;;;;;;5099983;28;20818;-62
2023/12/16 09:34:04;;;;;;;6.30;4.60;;;16.30;90.80;;;;;;5094102;28;20421;-62
2023/12/16 09:36:30;;;;;;;5.53;4.17;;;16.50;90.90;;;;;;5095220;28;20430;-62
2023/12/16 09:38:57;;;;;;;10.00;4.63;;;16.80;89.70;;;;;;5094519;28;20423;-62
2023/12/16 09:41:24;;;;;;;6.73;3.87;;;16.90;88.50;;;;;;5082778;28;20415;-62
2023/12/16 09:43:52;;;;;;;6.90;4.77;;;17.00;87.60;;;;;;5095881;28;20469;-62
2023/12/16 09:46:27;;;;;;;9.30;4.70;;;17.00;90.00;;;;;;5092034;28;20430;-62
2023/12/16 09:48:54;;;;;;;6.17;4.17;;;16.90;88.30;;;;;;5091195;28;20417;-63
2023/12/16 09:51:21;;;;;;;9.17;4.73;;;16.80;90.30;;;;;;5089844;28;20426;-62
2023/12/16 09:53:49;;;;;;;482.63;332.53;;;16.80;90.50;;;;;;5101992;28;20430;-61
2023/12/16 09:56:16;;;;;;;25.73;18.33;;;16.80;91.20;;;;;;5094886;28;20512;-63
2023/12/16 09:58:44;;;;;;;7.20;4.50;;;16.70;89.90;;;;;;5090194;28;20492;-62
2023/12/16 10:01:11;;;;;;;8.10;4.60;;;16.60;91.00;;;;;;5094565;28;20786;-62
2023/12/16 10:03:41;;;;;;;7.63;4.33;;;16.60;90.10;;;;;;5100447;28;20552;-61
2023/12/16 10:06:10;;;;;;;8.53;6.13;;;16.50;88.80;;;;;;5080780;28;20480;-61
2023/12/16 10:08:37;;;;;;;6.90;5.03;;;16.40;89.20;;;;;;5094206;28;20419;-62
2023/12/16 10:11:03;;;;;;;6.60;4.73;;;16.30;89.90;;;;;;5081203;28;20430;-61
2023/12/16 10:13:31;;;;;;;8.80;4.27;;;16.30;88.90;;;;;;5085681;28;20972;-62
2023/12/16 10:15:58;;;;;;;7.47;4.40;;;15.90;86.20;;;;;;5054429;28;1103678;-62
2023/12/16 10:18:26;;;;;;;8.27;4.63;;;15.50;87.20;;;;;;5082637;28;20212;-61
2023/12/16 10:20:52;;;;;;;7.70;4.30;;;15.10;89.00;;;;;;5089323;28;20441;-61
2023/12/16 10:23:18;;;;;;;307.00;199.17;;;14.70;90.20;;;;;;5090842;28;20952;-61
2023/12/16 10:25:43;;;;;;;164.90;106.40;;;14.50;91.40;;;;;;5090046;28;20181;-60
2023/12/16 10:28:12;;;;;;;14.70;6.10;;;14.30;92.20;;;;;;5093744;28;20426;-62
2023/12/16 10:30:38;;;;;;;7.53;4.27;;;14.50;93.10;;;;;;5090332;28;20187;-62
2023/12/16 10:33:11;;;;;;;10.63;4.83;;;14.90;92.20;;;;;;5090228;28;20614;-62
2023/12/16 10:35:37;;;;;;;8.70;4.00;;;15.00;91.40;;;;;;5089359;28;20428;-62
2023/12/16 10:38:04;;;;;;;8.10;4.07;;;14.80;91.80;;;;;;5090749;28;20429;-62
2023/12/16 10:40:31;;;;;;;10.30;3.97;;;14.70;92.40;;;;;;5080419;28;20430;-63
2023/12/16 10:42:57;;;;;;;8.57;3.83;;;14.50;92.10;;;;;;5093972;28;20498;-61
2023/12/16 10:45:25;;;;;;;9.60;3.83;;;14.30;92.70;;;;;;5077473;28;20590;-62
2023/12/16 10:47:55;;;;;;;7.60;4.30;;;14.10;93.40;;;;;;5080436;28;20559;-62
2023/12/16 10:50:25;;;;;;;6.07;4.30;;;13.90;93.90;;;;;;5085503;28;20748;-62
2023/12/16 10:52:56;;;;;;;9.20;4.00;;;13.80;94.40;;;;;;5080760;28;20513;-62
2023/12/16 10:55:48;;;;;;;10.60;4.20;;;13.70;94.50;;;;;;5089308;28;20414;-63
2023/12/16 10:58:19;;;;;;;6.20;3.90;;;13.40;94.90;;;;;;5094470;28;20521;-61
2023/12/16 11:00:50;;;;;;;8.03;3.53;;;13.30;95.50;;;;;;5094051;28;20512;-62
2023/12/16 11:03:32;;;;;;;7.03;4.00;;;13.20;96.20;;;;;;5090548;28;20405;-62
2023/12/16 11:06:07;;;;;;;11.23;4.20;;;13.10;96.50;;;;;;5090600;28;20970;-62
2023/12/16 11:08:35;;;;;;;11.87;4.00;;;13.00;97.20;;;;;;5095679;28;20424;-62
2023/12/16 11:11:02;;;;;;;4.90;4.30;;;12.90;97.90;;;;;;5084425;28;20425;-61
2023/12/16 11:13:29;;;;;;;7.03;3.63;;;12.80;98.40;;;;;;5093543;28;20425;-62
2023/12/16 11:16:02;;;;;;;6.60;4.07;;;12.70;98.60;;;;;;5077347;28;20516;-62
2023/12/16 11:18:30;;;;;;;6.60;3.70;;;12.60;99.50;;;;;;5080450;28;20425;-63
2023/12/16 11:21:04;;;;;;;7.20;4.30;;;12.60;99.90;;;;;;5112547;28;20414;-63
2023/12/16 11:23:43;;;;;;;8.37;3.93;;;12.50;99.90;;;;;;5109781;28;20460;-62
2023/12/16 11:26:10;;;;;;;13.23;4.27;;;12.40;99.90;;;;;;5107603;28;20794;-62
2023/12/16 11:28:35;;;;;;;8.33;3.87;;;12.50;99.90;;;;;;5113652;28;20395;-63
2023/12/16 11:31:03;;;;;;;6.37;5.23;;;12.50;99.90;;;;;;5112979;28;20913;-63
2023/12/16 11:33:46;;;;;;;8.03;3.43;;;12.50;99.90;;;;;;5113694;28;20403;-63
2023/12/16 11:36:14;;;;;;;9.67;4.47;;;12.50;99.90;;;;;;5111158;28;20776;-63
2023/12/16 11:38:42;;;;;;;8.00;3.70;;;12.50;99.90;;;;;;5112945;28;20404;-62
2023/12/16 11:41:29;;;;;;;6.77;3.63;;;12.40;99.90;;;;;;5110843;28;20442;-63
2023/12/16 11:43:55;;;;;;;4.93;3.80;;;12.40;99.90;;;;;;5102533;28;20461;-63
2023/12/16 11:46:39;;;;;;;9.80;4.60;;;12.40;99.90;;;;;;5111107;28;20420;-62
2023/12/16 11:49:10;;;;;;;10.10;4.37;;;12.40;99.90;;;;;;5107884;28;20264;-63
2023/12/16 11:51:38;;;;;;;7.20;4.27;;;12.30;99.90;;;;;;5111867;28;20913;-62
2023/12/16 11:54:04;;;;;;;5.90;4.37;;;12.20;99.90;;;;;;5110347;28;20425;-63
2023/12/16 11:56:31;;;;;;;8.33;3.87;;;12.20;99.90;;;;;;5110299;28;20427;-62
2023/12/16 11:58:57;;;;;;;7.57;3.73;;;12.20;99.90;;;;;;5094391;28;20417;-62
2023/12/16 12:01:42;;;;;;;7.50;4.50;;;12.10;99.90;;;;;;5110349;28;20434;-64
2023/12/16 12:04:08;;;;;;;10.63;5.00;;;12.10;99.90;;;;;;5109523;28;20464;-62
2023/12/16 12:06:34;;;;;;;12.80;4.70;;;12.10;99.90;;;;;;5092641;28;20425;-63
2023/12/16 12:09:00;;;;;;;8.23;4.20;;;12.10;99.90;;;;;;5112590;28;20399;-63
2023/12/16 12:11:26;;;;;;;9.43;4.70;;;12.10;99.90;;;;;;5109609;28;20623;-62
2023/12/16 12:13:52;;;;;;;4.83;3.63;;;12.10;99.90;;;;;;5108997;28;20439;-62
2023/12/16 12:16:18;;;;;;;7.37;4.20;;;12.00;99.90;;;;;;5105293;28;20460;-62
2023/12/16 12:18:44;;;;;;;4.40;3.43;;;12.10;99.90;;;;;;5090827;28;20409;-62
2023/12/16 12:21:10;;;;;;;8.83;4.00;;;12.10;99.90;;;;;;5112747;28;20423;-63
2023/12/16 12:23:37;;;;;;;9.07;4.70;;;12.10;99.90;;;;;;5109232;28;20209;-62
2023/12/16 12:26:03;;;;;;;9.13;4.20;;;12.10;99.90;;;;;;5108339;28;20492;-62
2023/12/16 12:28:29;;;;;;;11.30;5.63;;;12.00;99.90;;;;;;5112204;28;20410;-62
2023/12/16 12:31:07;;;;;;;6.57;3.90;;;12.00;99.90;;;;;;5108142;28;20460;-62
2023/12/16 12:33:34;;;;;;;11.53;4.97;;;12.00;99.90;;;;;;5110629;28;20439;-63
2023/12/16 12:36:00;;;;;;;11.87;4.03;;;12.00;99.90;;;;;;5112261;28;20411;-62
2023/12/16 12:38:30;;;;;;;6.60;3.50;;;12.00;99.90;;;;;;5107709;28;20782;-63
2023/12/16 12:41:03;;;;;;;7.93;4.20;;;12.00;99.90;;;;;;5108340;28;20453;-63